Fort Wayne, Indiana
Current Conditions -  °F | °C
As of 5:54 PM on Thursday 18 Dec 2014 (Local Time) from KFWA Reporting Station
Broken Clouds Broken Clouds  
Wind Chill: 19°   Ceiling: 2200
Heat Index: 27°   Visibility: 10mi
Dew Point: 21°   Wind: 7mph
Humidity: 78%   Direction: 310°NW
Pressure: 30.22"   Gusts: NA
Location:  41.08°N, 85.1°W
Report Text: KFWA 182254Z 31006KT 10SM BKN022 BKN250 M03/M06 A3022 RMK AO2 SLP244 T10281061
Loading
Personal Weather Stations






























Interactive Weather Map New forecast layout! Learn more

10-Day Weather Forecast

Advertisements
Track Severe Weather on mobile